Skip Navigation Links Skip Navigation Links

Current Weather

Resolute, N.T.

For information only: do not use for flight planning or navigation.
Latest weather
Observation time Friday, November 17, 2017 3:00 PM CST
Local time Friday, November 17, 2017 3:20 PM CST
Flight conditions Visual Meteorological Conditions
Winds
Wind direction East-Southeast (110°)
Wind speed 16 mph
Visibility 15 mi.
Present weather light snow
Sky condition
Ceiling 5,700 ft. broken clouds
Cloud layer broken clouds 5,700 ft.
Cloud layer overcast 11,000 ft.
Temperature -9°F
Dewpoint -15°F
Altimeter 30.04 in.Hg
Derived measurements
Relative humidity 76%
Wind chill -32°F
Density altitude -4805 ft.
Sea-level pressure 30.08 in.Hg
METAR CYRB 172100Z 11014KT 15SM -SN BKN057 OVC110 M23/M26 A3004 RMK SC5AC3 SLP185

Settings

Location code

InnerDrive.Weather 4.0.6144.1 Release CLR 4.0.30319.36366
Copyright ©2015 Inner Drive Technology. All rights reserved. Portions Copyright ©1986-2015 David Braverman.

Find weather

Site navigation


Skip Navigation Links

Place info

Page info

PayPal - The safer, easier way to pay online!

Return home.

Copyright ©2017 Inner Drive Technology. Purveyors of fine, hand-crafted computer software. Page printed 2017-11-17T21:20:25 UTC.